createdAt,value
2018-12-24T00:00:24.018Z,99.07
2018-12-24T00:01:29.527Z,98.31
2018-12-24T00:02:35.033Z,98.31
2018-12-24T00:03:40.542Z,98.50
2018-12-24T00:04:46.047Z,98.60
2018-12-24T00:05:51.553Z,98.50
2018-12-24T00:06:57.066Z,98.69
2018-12-24T00:08:02.565Z,98.41
2018-12-24T00:09:08.084Z,98.69
2018-12-24T00:10:13.579Z,98.79
2018-12-24T00:11:19.619Z,98.03
2018-12-24T00:12:24.606Z,98.03
2018-12-24T00:13:30.114Z,98.03
2018-12-24T00:14:35.620Z,97.74
2018-12-24T00:15:41.120Z,98.03
2018-12-24T00:16:46.626Z,97.93
2018-12-24T00:17:52.140Z,98.03
2018-12-24T00:18:57.649Z,97.74
2018-12-24T00:20:03.153Z,97.36
2018-12-24T00:21:08.658Z,97.17
2018-12-24T00:22:14.164Z,96.79
2018-12-24T00:23:19.676Z,97.17
2018-12-24T00:24:25.182Z,96.79
2018-12-24T00:25:30.695Z,96.12
2018-12-24T00:26:36.202Z,96.69
2018-12-24T00:27:41.707Z,96.69
2018-12-24T00:28:47.213Z,96.50
2018-12-24T00:29:52.723Z,96.89
2018-12-24T00:30:58.242Z,96.60
2018-12-24T00:32:03.752Z,96.60
2018-12-24T00:33:09.245Z,96.41
2018-12-24T00:34:14.755Z,96.31
2018-12-24T00:35:20.260Z,96.12
2018-12-24T00:36:25.825Z,95.84
2018-12-24T00:37:31.266Z,95.75
2018-12-24T00:38:36.791Z,96.12
2018-12-24T00:39:42.320Z,96.50
2018-12-24T00:40:47.800Z,96.41
2018-12-24T00:41:53.304Z,96.31
2018-12-24T00:42:58.820Z,95.56
2018-12-24T00:44:04.327Z,96.50
2018-12-24T00:45:09.830Z,95.75
2018-12-24T00:46:15.345Z,96.12
2018-12-24T00:47:20.852Z,96.12
2018-12-24T00:48:26.357Z,96.12
2018-12-24T00:49:31.870Z,96.12
2018-12-24T00:50:37.372Z,96.41
2018-12-24T00:51:42.884Z,96.31
2018-12-24T00:52:48.392Z,96.22
2018-12-24T00:53:53.897Z,96.12
2018-12-24T00:54:59.402Z,96.50
2018-12-24T00:56:04.911Z,96.50
2018-12-24T00:57:10.418Z,96.41
2018-12-24T00:58:15.925Z,96.55
2018-12-24T00:59:21.435Z,96.17
2018-12-24T01:00:26.957Z,95.79
2018-12-24T01:01:32.451Z,95.70
2018-12-24T01:02:37.957Z,96.36
2018-12-24T01:03:43.468Z,95.75
2018-12-24T01:04:48.971Z,95.56
2018-12-24T01:05:54.479Z,95.89
2018-12-24T01:06:59.987Z,95.51
2018-12-24T01:08:05.495Z,95.98
2018-12-24T01:09:11.016Z,95.79
2018-12-24T01:10:16.519Z,95.70
2018-12-24T01:11:22.027Z,95.70
2018-12-24T01:12:27.529Z,95.89
2018-12-24T01:13:33.040Z,95.79
2018-12-24T01:14:38.544Z,95.98
2018-12-24T01:15:44.056Z,96.17
2018-12-24T01:16:49.563Z,96.17
2018-12-24T01:17:55.070Z,95.79
2018-12-24T01:19:00.576Z,95.79
2018-12-24T01:20:06.086Z,95.70
2018-12-24T01:21:11.591Z,95.60
2018-12-24T01:22:17.103Z,95.70
2018-12-24T01:23:22.609Z,95.70
2018-12-24T01:24:28.122Z,95.70
2018-12-24T01:25:33.623Z,95.89
2018-12-24T01:26:39.137Z,95.89
2018-12-24T01:27:44.639Z,96.08
2018-12-24T01:28:50.158Z,95.79
2018-12-24T01:29:55.668Z,95.70
2018-12-24T01:31:01.169Z,96.08
2018-12-24T01:32:06.673Z,96.08
2018-12-24T01:33:12.186Z,95.98
2018-12-24T01:34:17.691Z,95.79
2018-12-24T01:35:23.197Z,95.98
2018-12-24T01:36:28.706Z,95.98
2018-12-24T01:37:34.217Z,95.79
2018-12-24T01:38:39.725Z,95.79
2018-12-24T01:39:45.231Z,95.51
2018-12-24T01:40:50.737Z,95.79
2018-12-24T01:41:56.254Z,95.79
2018-12-24T01:43:01.759Z,95.51
2018-12-24T01:44:07.261Z,95.89
2018-12-24T01:45:12.773Z,95.79
2018-12-24T01:46:18.279Z,95.79
2018-12-24T01:47:23.786Z,95.70
2018-12-24T01:48:29.299Z,95.89
2018-12-24T01:49:34.808Z,95.79
2018-12-24T01:50:40.312Z,95.89
2018-12-24T01:51:45.830Z,95.98
2018-12-24T01:52:51.337Z,95.79
2018-12-24T01:53:56.841Z,95.98
2018-12-24T01:55:02.345Z,95.89
2018-12-24T01:56:07.860Z,95.51
2018-12-24T01:57:13.362Z,95.70
2018-12-24T01:58:18.874Z,95.89
2018-12-24T01:59:24.372Z,95.98
2018-12-24T02:00:29.887Z,95.89
2018-12-24T02:01:35.392Z,96.17
2018-12-24T02:02:40.904Z,96.36
2018-12-24T02:03:46.418Z,95.79
2018-12-24T02:04:51.917Z,95.89
2018-12-24T02:05:57.427Z,95.79
2018-12-24T02:07:02.942Z,95.89
2018-12-24T02:08:08.440Z,96.46
2018-12-24T02:09:13.951Z,96.26
2018-12-24T02:10:19.459Z,96.17
2018-12-24T02:11:24.966Z,95.98
2018-12-24T02:12:30.475Z,95.98
2018-12-24T02:13:35.982Z,96.08
2018-12-24T02:14:41.491Z,96.17
2018-12-24T02:15:46.996Z,96.46
2018-12-24T02:16:52.509Z,96.36
2018-12-24T02:17:58.013Z,96.26
2018-12-24T02:19:03.523Z,96.36
2018-12-24T02:20:09.036Z,96.55
2018-12-24T02:21:14.545Z,96.36
2018-12-24T02:22:20.057Z,96.74
2018-12-24T02:23:25.554Z,96.84
2018-12-24T02:24:31.064Z,97.03
2018-12-24T02:25:36.574Z,96.55
2018-12-24T02:26:42.082Z,96.84
2018-12-24T02:27:47.585Z,96.84
2018-12-24T02:28:53.098Z,96.36
2018-12-24T02:29:58.608Z,96.55
2018-12-24T02:31:04.112Z,96.36
2018-12-24T02:32:09.627Z,96.36
2018-12-24T02:33:15.133Z,96.36
2018-12-24T02:34:20.642Z,96.36
2018-12-24T02:35:26.143Z,96.74
2018-12-24T02:36:31.655Z,96.74
2018-12-24T02:37:37.163Z,96.84
2018-12-24T02:38:42.665Z,96.74
2018-12-24T02:39:48.178Z,96.94
2018-12-24T02:40:53.686Z,96.55
2018-12-24T02:41:59.186Z,96.55
2018-12-24T02:43:04.704Z,96.55
2018-12-24T02:44:10.210Z,96.55
2018-12-24T02:45:15.718Z,96.46
2018-12-24T02:46:21.345Z,96.74
2018-12-24T02:47:26.732Z,96.74
2018-12-24T02:48:32.243Z,95.98
2018-12-24T02:49:37.758Z,96.17
2018-12-24T02:50:43.262Z,96.46
2018-12-24T02:51:48.771Z,95.89
2018-12-24T02:52:54.277Z,96.17
2018-12-24T02:53:59.794Z,96.17
2018-12-24T02:55:05.295Z,96.17
2018-12-24T02:56:10.799Z,96.08
2018-12-24T02:57:16.313Z,96.36
2018-12-24T02:58:21.819Z,96.36
2018-12-24T02:59:27.335Z,96.84
2018-12-24T03:00:32.835Z,96.17
2018-12-24T03:01:38.345Z,96.36
2018-12-24T03:02:43.858Z,96.36
2018-12-24T03:03:49.359Z,96.17
2018-12-24T03:04:54.867Z,96.26
2018-12-24T03:06:00.377Z,96.08
2018-12-24T03:07:05.885Z,95.98
2018-12-24T03:08:11.398Z,96.46
2018-12-24T03:09:16.902Z,96.17
2018-12-24T03:10:22.410Z,96.26
2018-12-24T03:11:27.932Z,96.55
2018-12-24T03:12:33.427Z,95.98
2018-12-24T03:13:38.939Z,95.89
2018-12-24T03:14:44.451Z,96.08
2018-12-24T03:15:49.964Z,95.89
2018-12-24T03:16:55.463Z,96.17
2018-12-24T03:18:00.970Z,95.98
2018-12-24T03:19:06.491Z,96.26
2018-12-24T03:20:11.985Z,96.36
2018-12-24T03:21:17.494Z,96.46
2018-12-24T03:22:23.003Z,96.17
2018-12-24T03:23:28.514Z,96.17
2018-12-24T03:24:34.025Z,96.46
2018-12-24T03:25:39.531Z,96.36
2018-12-24T03:26:45.043Z,96.55
2018-12-24T03:27:50.547Z,96.36
2018-12-24T03:28:56.054Z,96.55
2018-12-24T03:30:01.566Z,96.74
2018-12-24T03:31:07.072Z,96.84
2018-12-24T03:32:12.586Z,96.55
2018-12-24T03:33:18.110Z,96.65
2018-12-24T03:34:23.602Z,96.84
2018-12-24T03:35:29.109Z,96.65
2018-12-24T03:36:34.617Z,96.55
2018-12-24T03:37:40.128Z,96.74
2018-12-24T03:38:45.636Z,96.60
2018-12-24T03:39:51.139Z,96.46
2018-12-24T03:40:56.648Z,96.94
2018-12-24T03:42:02.156Z,96.17
2018-12-24T03:43:12.614Z,96.36
2018-12-24T03:44:13.171Z,96.46
2018-12-24T03:45:18.688Z,96.36
2018-12-24T03:46:24.198Z,96.65
2018-12-24T03:47:29.698Z,96.55
2018-12-24T03:48:35.206Z,96.55
2018-12-24T03:49:40.715Z,96.94
2018-12-24T03:50:46.227Z,96.55
2018-12-24T03:51:51.730Z,96.94
2018-12-24T03:52:57.243Z,96.74
2018-12-24T03:54:02.750Z,96.84
2018-12-24T03:55:08.256Z,96.84
2018-12-24T03:56:13.782Z,96.94
2018-12-24T03:57:19.276Z,96.94
2018-12-24T03:58:24.780Z,97.17
2018-12-24T03:59:30.294Z,96.65
2018-12-24T04:00:35.799Z,96.55
2018-12-24T04:01:41.310Z,96.36
2018-12-24T04:02:46.813Z,96.46
2018-12-24T04:03:52.319Z,96.74
2018-12-24T04:04:57.832Z,96.55
2018-12-24T04:06:03.342Z,96.74
2018-12-24T04:07:08.855Z,96.55
2018-12-24T04:08:14.356Z,96.36
2018-12-24T04:09:19.958Z,96.36
2018-12-24T04:10:25.375Z,96.36
2018-12-24T04:11:30.881Z,96.08
2018-12-24T04:12:36.395Z,96.74
2018-12-24T04:13:41.901Z,96.84
2018-12-24T04:14:47.414Z,96.94
2018-12-24T04:15:52.918Z,96.94
2018-12-24T04:16:58.425Z,96.94
2018-12-24T04:18:03.933Z,96.94
2018-12-24T04:19:09.439Z,96.94
2018-12-24T04:20:14.954Z,97.13
2018-12-24T04:21:22.804Z,96.55
2018-12-24T04:22:25.965Z,96.55
2018-12-24T04:23:31.475Z,96.36
2018-12-24T04:24:36.983Z,95.89
2018-12-24T04:25:42.490Z,95.60
2018-12-24T04:26:48.001Z,96.17
2018-12-24T04:27:53.508Z,96.36
2018-12-24T04:28:59.019Z,96.36
2018-12-24T04:30:04.541Z,96.74
2018-12-24T04:31:10.035Z,96.55
2018-12-24T04:32:15.540Z,96.46
2018-12-24T04:33:21.052Z,96.36
2018-12-24T04:34:26.559Z,96.17
2018-12-24T04:35:32.062Z,96.55
2018-12-24T04:36:37.575Z,96.55
2018-12-24T04:37:43.085Z,96.84
2018-12-24T04:38:48.601Z,96.65
2018-12-24T04:39:54.115Z,96.65
2018-12-24T04:40:59.609Z,96.65
2018-12-24T04:42:05.122Z,97.13
2018-12-24T04:43:10.625Z,97.13
2018-12-24T04:44:16.141Z,96.84
2018-12-24T04:45:21.644Z,97.13
2018-12-24T04:46:27.157Z,96.74
2018-12-24T04:47:32.657Z,97.03
2018-12-24T04:48:38.168Z,96.94
2018-12-24T04:49:43.678Z,97.03
2018-12-24T04:50:49.179Z,96.84
2018-12-24T04:51:54.707Z,96.94
2018-12-24T04:53:00.201Z,96.55
2018-12-24T04:54:05.710Z,96.84
2018-12-24T04:55:11.218Z,97.03
2018-12-24T04:56:16.726Z,96.36
2018-12-24T04:57:22.235Z,96.17
2018-12-24T04:58:27.739Z,96.36
2018-12-24T04:59:33.249Z,96.36
2018-12-24T05:00:38.761Z,96.55
2018-12-24T05:01:44.264Z,96.55
2018-12-24T05:02:49.778Z,96.22
2018-12-24T05:03:55.290Z,96.36
2018-12-24T05:05:00.792Z,96.84
2018-12-24T05:06:06.300Z,96.55
2018-12-24T05:07:11.807Z,96.65
2018-12-24T05:08:17.314Z,96.94
2018-12-24T05:09:22.824Z,96.94
2018-12-24T05:10:28.338Z,96.60
2018-12-24T05:11:33.838Z,96.36
2018-12-24T05:12:39.347Z,96.46
2018-12-24T05:13:44.867Z,96.55
2018-12-24T05:14:50.364Z,96.84
2018-12-24T05:15:55.876Z,96.94
2018-12-24T05:17:01.382Z,95.98
2018-12-24T05:18:06.895Z,96.08
2018-12-24T05:19:12.401Z,96.74
2018-12-24T05:20:17.907Z,96.46
2018-12-24T05:21:23.414Z,96.36
2018-12-24T05:22:28.926Z,96.12
2018-12-24T05:23:34.434Z,96.17
2018-12-24T05:24:39.937Z,96.55
2018-12-24T05:25:45.449Z,96.36
2018-12-24T05:26:50.958Z,96.36
2018-12-24T05:27:56.465Z,96.84
2018-12-24T05:29:01.972Z,96.65
2018-12-24T05:30:07.481Z,97.22
2018-12-24T05:31:13.002Z,97.31
2018-12-24T05:32:18.501Z,97.41
2018-12-24T05:33:24.008Z,97.03
2018-12-24T05:34:29.518Z,96.94
2018-12-24T05:35:35.027Z,97.13
2018-12-24T05:36:40.532Z,97.13
2018-12-24T05:37:46.037Z,96.65
2018-12-24T05:38:51.549Z,96.84
2018-12-24T05:39:57.055Z,96.84
2018-12-24T05:41:02.565Z,96.84
2018-12-24T05:42:08.075Z,97.13
2018-12-24T05:43:13.581Z,96.65
2018-12-24T05:44:19.091Z,96.74
2018-12-24T05:45:24.597Z,96.74
2018-12-24T05:46:30.105Z,96.94
2018-12-24T05:47:35.615Z,97.31
2018-12-24T05:48:41.122Z,96.84
2018-12-24T05:49:46.632Z,96.65
2018-12-24T05:50:52.138Z,96.74
2018-12-24T05:51:57.647Z,96.55
2018-12-24T05:53:03.158Z,96.84
2018-12-24T05:54:08.674Z,96.65
2018-12-24T05:55:14.169Z,96.46
2018-12-24T05:56:19.686Z,96.65
2018-12-24T05:57:25.189Z,96.55
2018-12-24T05:58:30.704Z,96.74
2018-12-24T05:59:36.204Z,96.36
2018-12-24T06:00:41.713Z,96.17
2018-12-24T06:01:47.219Z,96.36
2018-12-24T06:02:52.733Z,96.17
2018-12-24T06:03:58.236Z,96.17
2018-12-24T06:05:03.750Z,96.17
2018-12-24T06:06:09.251Z,96.08
2018-12-24T06:07:14.754Z,96.55
2018-12-24T06:08:20.271Z,96.26
2018-12-24T06:09:25.778Z,95.89
2018-12-24T06:10:31.285Z,95.70
2018-12-24T06:11:36.797Z,96.36
2018-12-24T06:12:42.309Z,96.36
2018-12-24T06:13:47.810Z,95.41
2018-12-24T06:14:53.329Z,95.03
2018-12-24T06:15:58.824Z,95.41
2018-12-24T06:17:04.336Z,95.79
2018-12-24T06:18:09.845Z,95.12
2018-12-24T06:19:15.350Z,95.41
2018-12-24T06:20:20.861Z,95.12
2018-12-24T06:21:26.368Z,95.41
2018-12-24T06:22:31.875Z,95.51
2018-12-24T06:23:37.386Z,95.41
2018-12-24T06:24:42.893Z,94.74
2018-12-24T06:25:48.400Z,95.03
2018-12-24T06:26:53.911Z,95.60
2018-12-24T06:27:59.414Z,95.79
2018-12-24T06:29:04.930Z,95.79
2018-12-24T06:30:10.430Z,95.89
2018-12-24T06:31:15.940Z,95.79
2018-12-24T06:32:21.447Z,95.51
2018-12-24T06:33:26.963Z,95.03
2018-12-24T06:34:32.471Z,95.41
2018-12-24T06:35:37.976Z,95.89
2018-12-24T06:36:43.486Z,95.79
2018-12-24T06:37:49.016Z,95.79
2018-12-24T06:38:54.498Z,95.51
2018-12-24T06:40:00.006Z,95.79
2018-12-24T06:41:05.515Z,95.41
2018-12-24T06:42:11.024Z,95.79
2018-12-24T06:43:16.531Z,95.79
2018-12-24T06:44:22.049Z,95.79
2018-12-24T06:45:27.545Z,95.79
2018-12-24T06:46:33.053Z,95.70
2018-12-24T06:47:38.562Z,95.60
2018-12-24T06:48:44.068Z,95.60
2018-12-24T06:49:49.579Z,95.79
2018-12-24T06:50:55.085Z,95.32
2018-12-24T06:52:00.596Z,94.65
2018-12-24T06:53:06.101Z,95.22
2018-12-24T06:54:11.612Z,94.84
2018-12-24T06:55:17.119Z,95.41
2018-12-24T06:56:22.626Z,94.93
2018-12-24T06:57:28.136Z,95.03
2018-12-24T06:58:33.642Z,94.93
2018-12-24T06:59:39.155Z,93.79
2018-12-24T07:00:44.713Z,94.37
2018-12-24T07:01:50.171Z,93.79
2018-12-24T07:02:55.677Z,94.56
2018-12-24T07:04:01.183Z,94.18
2018-12-24T07:05:06.694Z,93.79
2018-12-24T07:06:12.200Z,93.98
2018-12-24T07:07:17.707Z,93.23
2018-12-24T07:08:23.218Z,92.80
2018-12-24T07:09:28.728Z,93.32
2018-12-24T07:10:34.234Z,93.27
2018-12-24T07:11:39.739Z,93.27
2018-12-24T07:12:45.246Z,93.55
2018-12-24T07:13:50.764Z,93.55
2018-12-24T07:14:56.262Z,93.75
2018-12-24T07:16:01.777Z,93.79
2018-12-24T07:17:07.280Z,93.55
2018-12-24T07:18:12.787Z,93.37
2018-12-24T07:19:18.294Z,93.79
2018-12-24T07:20:23.800Z,93.55
2018-12-24T07:21:29.312Z,93.75
2018-12-24T07:22:34.817Z,93.51
2018-12-24T07:23:40.327Z,93.18
2018-12-24T07:24:45.837Z,93.18
2018-12-24T07:25:51.342Z,92.41
2018-12-24T07:26:56.851Z,91.94
2018-12-24T07:28:02.360Z,91.47
2018-12-24T07:29:07.867Z,91.56
2018-12-24T07:30:13.373Z,91.47
2018-12-24T07:31:18.880Z,91.28
2018-12-24T07:32:24.386Z,91.28
2018-12-24T07:33:29.893Z,91.47
2018-12-24T07:34:35.404Z,91.66
2018-12-24T07:35:40.914Z,91.37
2018-12-24T07:36:46.417Z,91.47
2018-12-24T07:37:51.925Z,91.47
2018-12-24T07:38:57.431Z,91.47
2018-12-24T07:40:02.946Z,91.47
2018-12-24T07:41:08.449Z,91.47
2018-12-24T07:42:13.957Z,91.47
2018-12-24T07:43:19.463Z,91.37
2018-12-24T07:44:24.968Z,91.85
2018-12-24T07:45:30.486Z,90.61
2018-12-24T07:46:35.991Z,90.70
2018-12-24T07:47:41.496Z,89.66
2018-12-24T07:48:47.000Z,90.33
2018-12-24T07:49:52.506Z,90.37
2018-12-24T07:50:58.013Z,90.66
2018-12-24T07:52:03.525Z,90.61
2018-12-24T07:53:09.031Z,91.28
2018-12-24T07:54:14.537Z,90.28
2018-12-24T07:55:20.046Z,89.71
2018-12-24T07:56:25.550Z,89.80
2018-12-24T07:57:31.060Z,90.04
2018-12-24T07:58:36.563Z,89.42
2018-12-24T07:59:42.083Z,89.42
2018-12-24T08:00:47.582Z,89.14
2018-12-24T08:01:53.088Z,88.76
2018-12-24T08:02:58.613Z,89.42
2018-12-24T08:04:04.102Z,89.04
2018-12-24T08:05:09.611Z,89.04
2018-12-24T08:06:15.118Z,89.90
2018-12-24T08:07:20.629Z,89.71
2018-12-24T08:08:26.136Z,89.90
2018-12-24T08:09:31.640Z,89.18
2018-12-24T08:10:37.146Z,88.85
2018-12-24T08:11:42.659Z,88.28
2018-12-24T08:12:48.172Z,89.04
2018-12-24T08:13:53.670Z,88.67
2018-12-24T08:14:59.204Z,87.85
2018-12-24T08:16:04.685Z,87.90
2018-12-24T08:17:10.200Z,87.62
2018-12-24T08:18:15.697Z,86.76
2018-12-24T08:19:21.209Z,86.19
2018-12-24T08:20:26.714Z,86.38
2018-12-24T08:21:32.223Z,86.38
2018-12-24T08:22:37.728Z,86.67
2018-12-24T08:23:43.236Z,86.47
2018-12-24T08:24:48.750Z,86.19
2018-12-24T08:25:54.249Z,86.57
2018-12-24T08:26:59.755Z,87.62
2018-12-24T08:28:05.267Z,87.14
2018-12-24T08:29:10.770Z,87.43
2018-12-24T08:30:16.276Z,87.81
2018-12-24T08:31:21.783Z,88.00
2018-12-24T08:32:27.290Z,88.19
2018-12-24T08:33:32.800Z,88.33
2018-12-24T08:34:38.308Z,88.23
2018-12-24T08:35:43.816Z,88.42
2018-12-24T08:36:49.319Z,88.80
2018-12-24T08:37:54.828Z,87.85
2018-12-24T08:39:00.337Z,87.85
2018-12-24T08:40:05.840Z,87.71
2018-12-24T08:41:11.351Z,88.19
2018-12-24T08:42:16.860Z,87.66
2018-12-24T08:43:22.368Z,88.28
2018-12-24T08:44:27.870Z,87.28
2018-12-24T08:45:33.379Z,86.29
2018-12-24T08:46:38.889Z,87.24
2018-12-24T08:47:44.398Z,87.71
2018-12-24T08:48:49.902Z,86.76
2018-12-24T08:49:55.408Z,87.34
2018-12-24T08:51:00.916Z,87.81
2018-12-24T08:52:06.421Z,89.14
2018-12-24T08:53:11.939Z,88.95
2018-12-24T08:54:17.456Z,88.76
2018-12-24T08:55:22.945Z,89.42
2018-12-24T08:56:29.274Z,87.81
2018-12-24T08:57:33.960Z,87.43
2018-12-24T08:58:39.468Z,86.57
2018-12-24T08:59:44.976Z,87.62
2018-12-24T09:00:50.484Z,87.71
2018-12-24T09:01:58.049Z,87.71
2018-12-24T09:03:01.505Z,88.38
2018-12-24T09:04:07.096Z,88.38
2018-12-24T09:05:12.515Z,88.09
2018-12-24T09:06:18.018Z,88.76
2018-12-24T09:07:23.522Z,88.28
2018-12-24T09:08:29.035Z,87.71
2018-12-24T09:09:34.540Z,88.00
2018-12-24T09:10:40.075Z,88.85
2018-12-24T09:11:45.561Z,86.57
2018-12-24T09:12:51.062Z,86.95
2018-12-24T09:13:56.572Z,86.76
2018-12-24T09:15:02.074Z,87.38
2018-12-24T09:16:07.581Z,86.82
2018-12-24T09:17:13.091Z,86.91
2018-12-24T09:18:18.597Z,86.63
2018-12-24T09:19:24.108Z,86.72
2018-12-24T09:20:29.684Z,86.53
2018-12-24T09:21:35.117Z,87.57
2018-12-24T09:22:40.623Z,87.38
2018-12-24T09:23:46.132Z,88.24
2018-12-24T09:24:51.645Z,87.95
2018-12-24T09:25:57.143Z,88.43
2018-12-24T09:27:02.654Z,88.24
2018-12-24T09:28:08.156Z,87.76
2018-12-24T09:29:13.666Z,87.57
2018-12-24T09:30:19.182Z,88.24
2018-12-24T09:31:24.678Z,88.24
2018-12-24T09:32:30.184Z,87.01
2018-12-24T09:33:35.689Z,87.10
2018-12-24T09:34:41.202Z,87.95
2018-12-24T09:35:46.705Z,87.95
2018-12-24T09:36:52.221Z,88.24
2018-12-24T09:37:57.721Z,88.71
2018-12-24T09:39:03.223Z,89.28
2018-12-24T09:40:08.731Z,87.67
2018-12-24T09:41:14.236Z,87.86
2018-12-24T09:42:19.749Z,89.00
2018-12-24T09:43:25.249Z,87.67
2018-12-24T09:44:30.761Z,87.15
2018-12-24T09:45:36.265Z,87.67
2018-12-24T09:46:41.770Z,88.43
2018-12-24T09:47:47.283Z,88.86
2018-12-24T09:48:52.786Z,88.95
2018-12-24T09:49:58.288Z,88.39
2018-12-24T09:51:03.796Z,87.05
2018-12-24T09:52:09.304Z,87.62
2018-12-24T09:53:14.816Z,88.10
2018-12-24T09:54:20.315Z,88.67
2018-12-24T09:55:25.832Z,89.62
2018-12-24T09:56:31.331Z,89.53
2018-12-24T09:57:36.834Z,89.24
2018-12-24T09:58:42.343Z,88.95
2018-12-24T09:59:47.847Z,88.57
2018-12-24T10:00:53.357Z,88.29
2018-12-24T10:01:58.863Z,89.33
2018-12-24T10:03:04.365Z,89.53
2018-12-24T10:04:09.876Z,89.72
2018-12-24T10:05:15.388Z,90.28
2018-12-24T10:06:20.885Z,90.57
2018-12-24T10:07:26.401Z,91.14
2018-12-24T10:08:31.904Z,90.85
2018-12-24T10:09:37.410Z,91.28
2018-12-24T10:10:42.914Z,92.32
2018-12-24T10:11:48.423Z,92.61
2018-12-24T10:12:53.925Z,91.28
2018-12-24T10:13:59.432Z,90.52
2018-12-24T10:15:08.124Z,89.09
2018-12-24T10:16:10.449Z,89.19
2018-12-24T10:17:15.961Z,90.80
2018-12-24T10:18:21.469Z,90.61
2018-12-24T10:19:26.970Z,90.71
2018-12-24T10:20:32.476Z,90.99
2018-12-24T10:21:37.984Z,90.90
2018-12-24T10:22:43.490Z,90.80
2018-12-24T10:23:48.999Z,90.52
2018-12-24T10:24:54.495Z,89.47
2018-12-24T10:26:00.002Z,90.42
2018-12-24T10:27:05.511Z,90.90
2018-12-24T10:28:11.037Z,91.38
2018-12-24T10:29:16.524Z,91.19
2018-12-24T10:30:22.031Z,90.61
2018-12-24T10:31:27.539Z,90.99
2018-12-24T10:32:33.052Z,90.71
2018-12-24T10:33:38.553Z,89.76
2018-12-24T10:34:44.058Z,89.28
2018-12-24T10:35:49.565Z,89.19
2018-12-24T10:36:55.071Z,90.61
2018-12-24T10:38:00.585Z,91.28
2018-12-24T10:39:06.083Z,91.94
2018-12-24T10:40:11.591Z,91.75
2018-12-24T10:41:17.098Z,89.38
2018-12-24T10:42:22.638Z,90.33
2018-12-24T10:43:28.206Z,90.61
2018-12-24T10:44:33.616Z,89.86
2018-12-24T10:45:39.128Z,89.67
2018-12-24T10:46:44.635Z,90.33
2018-12-24T10:47:50.139Z,91.04
2018-12-24T10:48:55.648Z,90.66
2018-12-24T10:50:01.153Z,90.75
2018-12-24T10:51:06.661Z,90.85
2018-12-24T10:52:12.167Z,91.71
2018-12-24T10:53:17.670Z,91.33
2018-12-24T10:54:23.183Z,90.19
2018-12-24T10:55:28.687Z,88.67
2018-12-24T10:56:34.202Z,86.47
2018-12-24T10:57:39.703Z,86.47
2018-12-24T10:58:45.208Z,87.62
2018-12-24T10:59:50.715Z,88.28
2018-12-24T11:00:56.227Z,85.62
2018-12-24T11:02:01.733Z,85.58
2018-12-24T11:03:07.243Z,86.05
2018-12-24T11:04:12.751Z,85.30
2018-12-24T11:05:18.258Z,86.53
2018-12-24T11:06:23.759Z,86.91
2018-12-24T11:07:29.267Z,86.63
2018-12-24T11:08:34.775Z,86.63
2018-12-24T11:09:40.280Z,86.34
2018-12-24T11:10:46.756Z,85.86
2018-12-24T11:11:51.293Z,85.68
2018-12-24T11:12:56.798Z,85.30
2018-12-24T11:14:02.307Z,86.15
2018-12-24T11:15:07.819Z,87.01
2018-12-24T11:16:13.324Z,87.86
2018-12-24T11:17:18.836Z,87.86
2018-12-24T11:18:24.333Z,87.67
2018-12-24T11:19:29.841Z,87.19
2018-12-24T11:20:35.346Z,87.19
2018-12-24T11:21:40.853Z,87.86
2018-12-24T11:22:46.372Z,87.71
2018-12-24T11:23:51.866Z,86.63
2018-12-24T11:24:57.386Z,87.81
2018-12-24T11:26:02.884Z,88.38
2018-12-24T11:27:08.395Z,87.29
2018-12-24T11:28:13.898Z,87.19
2018-12-24T11:29:19.405Z,87.81
2018-12-24T11:30:24.909Z,87.81
2018-12-24T11:31:30.416Z,87.24
2018-12-24T11:32:35.936Z,87.14
2018-12-24T11:33:41.438Z,88.28
2018-12-24T11:34:46.938Z,88.38
2018-12-24T11:35:52.451Z,89.33
2018-12-24T11:36:57.956Z,89.90
2018-12-24T11:38:03.469Z,89.42
2018-12-24T11:39:08.975Z,87.62
2018-12-24T11:40:14.477Z,86.67
2018-12-24T11:41:19.987Z,87.14
2018-12-24T11:42:26.071Z,88.19
2018-12-24T11:43:31.002Z,89.42
2018-12-24T11:44:36.501Z,88.76
2018-12-24T11:45:42.011Z,88.00
2018-12-24T11:46:47.526Z,87.81
2018-12-24T11:47:53.025Z,87.24
2018-12-24T11:48:58.531Z,87.52
2018-12-24T11:50:04.037Z,85.72
2018-12-24T11:51:09.550Z,85.81
2018-12-24T11:52:15.053Z,86.57
2018-12-24T11:53:20.557Z,86.29
2018-12-24T11:54:26.067Z,86.57
2018-12-24T11:55:31.581Z,87.52
2018-12-24T11:56:37.080Z,86.95
2018-12-24T11:57:42.592Z,85.77
2018-12-24T11:58:48.093Z,86.38
2018-12-24T11:59:53.600Z,86.57
2018-12-24T12:00:59.108Z,86.95
2018-12-24T12:02:09.878Z,86.76
2018-12-24T12:03:10.124Z,87.24
2018-12-24T12:04:15.641Z,87.24
2018-12-24T12:05:21.142Z,86.67
2018-12-24T12:06:26.649Z,86.95
2018-12-24T12:07:32.155Z,85.81
2018-12-24T12:08:37.664Z,86.47
2018-12-24T12:09:43.175Z,86.61
2018-12-24T12:10:48.676Z,86.47
2018-12-24T12:11:54.183Z,85.34
2018-12-24T12:12:59.690Z,84.67
2018-12-24T12:14:05.197Z,84.77
2018-12-24T12:15:10.705Z,86.38
2018-12-24T12:16:16.212Z,87.14
2018-12-24T12:17:21.722Z,86.67
2018-12-24T12:18:27.226Z,85.72
2018-12-24T12:19:32.732Z,85.43
2018-12-24T12:20:38.242Z,85.81
2018-12-24T12:21:43.745Z,86.57
2018-12-24T12:22:49.251Z,84.86
2018-12-24T12:23:54.777Z,84.20
2018-12-24T12:25:00.273Z,85.24
2018-12-24T12:26:05.775Z,84.77
2018-12-24T12:27:11.293Z,83.91
2018-12-24T12:28:17.283Z,83.53
2018-12-24T12:29:22.296Z,83.72
2018-12-24T12:30:27.805Z,84.67
2018-12-24T12:31:33.315Z,84.10
2018-12-24T12:32:38.815Z,83.62
2018-12-24T12:33:44.328Z,85.24
2018-12-24T12:34:49.836Z,86.67
2018-12-24T12:35:55.332Z,86.19
2018-12-24T12:37:00.847Z,86.10
2018-12-24T12:38:06.354Z,84.52
2018-12-24T12:39:11.875Z,81.92
2018-12-24T12:40:17.369Z,81.82
2018-12-24T12:41:22.876Z,81.63
2018-12-24T12:42:28.384Z,82.29
2018-12-24T12:43:33.893Z,83.67
2018-12-24T12:44:39.472Z,82.91
2018-12-24T12:45:51.147Z,82.71
2018-12-24T12:46:50.415Z,83.76
2018-12-24T12:47:57.493Z,83.48
2018-12-24T12:49:01.428Z,83.48
2018-12-24T12:50:06.938Z,83.95
2018-12-24T12:51:12.443Z,83.48
2018-12-24T12:52:17.952Z,84.24
2018-12-24T12:53:23.462Z,83.86
2018-12-24T12:54:28.965Z,84.52
2018-12-24T12:55:34.472Z,84.24
2018-12-24T12:56:39.983Z,85.19
2018-12-24T12:57:45.488Z,86.52
2018-12-24T12:58:50.997Z,86.52
2018-12-24T12:59:56.506Z,86.05
2018-12-24T13:01:02.012Z,86.52
2018-12-24T13:02:07.518Z,84.91
2018-12-24T13:03:13.025Z,85.38
2018-12-24T13:04:18.538Z,84.62
2018-12-24T13:05:24.056Z,84.05
2018-12-24T13:06:29.546Z,85.10
2018-12-24T13:07:35.055Z,83.95
2018-12-24T13:08:40.568Z,84.20
2018-12-24T13:09:46.077Z,84.33
2018-12-24T13:10:51.581Z,83.39
2018-12-24T13:11:57.081Z,83.72
2018-12-24T13:13:02.602Z,84.39
2018-12-24T13:14:08.103Z,85.76
2018-12-24T13:15:13.609Z,86.10
2018-12-24T13:16:19.115Z,85.62
2018-12-24T13:17:24.626Z,85.05
2018-12-24T13:18:30.132Z,85.62
2018-12-24T13:19:35.636Z,86.05
2018-12-24T13:20:41.147Z,85.28
2018-12-24T13:21:46.651Z,84.81
2018-12-24T13:22:52.162Z,84.58
2018-12-24T13:23:57.669Z,84.67
2018-12-24T13:25:03.181Z,85.43
2018-12-24T13:26:08.680Z,86.52
2018-12-24T13:27:14.192Z,85.34
2018-12-24T13:28:19.698Z,85.86
2018-12-24T13:29:25.212Z,84.95
2018-12-24T13:30:30.714Z,85.76
2018-12-24T13:31:36.220Z,84.39
2018-12-24T13:32:41.736Z,84.39
2018-12-24T13:33:47.233Z,83.53
2018-12-24T13:34:52.743Z,82.77
2018-12-24T13:35:58.255Z,83.82
2018-12-24T13:37:03.760Z,83.06
2018-12-24T13:38:09.269Z,83.91
2018-12-24T13:39:14.777Z,84.48
2018-12-24T13:40:20.280Z,85.53
2018-12-24T13:41:25.790Z,85.15
2018-12-24T13:42:31.298Z,85.62
2018-12-24T13:43:36.803Z,84.86
2018-12-24T13:44:42.323Z,85.15
2018-12-24T13:45:47.829Z,85.15
2018-12-24T13:46:53.325Z,86.00
2018-12-24T13:47:58.836Z,85.43
2018-12-24T13:49:04.342Z,85.43
2018-12-24T13:50:09.849Z,85.53
2018-12-24T13:51:15.356Z,85.34
2018-12-24T13:52:20.862Z,85.72
2018-12-24T13:53:26.378Z,86.86
2018-12-24T13:54:31.881Z,86.47
2018-12-24T13:55:37.388Z,86.67
2018-12-24T13:56:42.885Z,86.86
2018-12-24T13:57:48.399Z,86.67
2018-12-24T13:58:53.906Z,86.86
2018-12-24T13:59:59.418Z,86.76
2018-12-24T14:01:04.925Z,86.67
2018-12-24T14:02:10.419Z,86.29
2018-12-24T14:03:15.939Z,86.00